Granbury, TX (76048)

10:44 AM CST on January 25, 2015 (GMT -0600)
Harbor Lakes | Change Station
CLOSE
Current Station
Personal Weather Station
Location: Granbury, TX
Elevation: 702 ft
Nearby Weather Stations

Elev 702 ft 32.42 °N, 97.76 °W | Updated 2 minutes ago

Clear
Clear
55.7 °F
Feels Like 55.7 °F
N
4.0
Wind Variable Wind from NNW
Gusts 8.0 mph

Today
High -- | Low -- °F
--% Chance of Precip.
Yesterday
High -- | Low -- °F
Precip. -- in
7:29 AM 5:57 PM
Waxing Crescent, 33% visible
Pressure 30.12 in
Visibility 10.0 miles
Clouds Clear
Dew Point 39 °F
Humidity 53%
Rainfall 0.00 in
Snow Depth Not available.
UV 3 out of 12
Pollen 8.20 out of 12
Air Quality Not available.
Flu Activity Not available.
METAR KGDJ 251635Z AUTO 32014G24KT 10SM CLR 14/02 A3012 RMK AO2 T01370022

More Conditions Fewer Conditions

Pressure 30.12 in
Visibility 10.0 miles
Clouds Clear
Dew Point 39 °F
Humidity 53%
Rainfall 0.00 in
Snow Depth Not available.
UV 3 out of 12
Pollen 8.20 out of 12
Air Quality Not available.
Flu Activity Not available.
METAR KGDJ 251635Z AUTO 32014G24KT 10SM CLR 14/02 A3012 RMK AO2 T01370022

More Conditions Fewer Conditions

10-Day Weather Forecast

Almanac

Astronomy

Jan. 25, 2015 Rise Set
Actual Time
Civil Twilight
Nautical Twilight
Astronomical Twilight
Moon
Length of Visible Light
Length of Day
Tomorrow will be .
, % of the Moon is Illuminated

Today's Extremes

State Highs State Lows

Community

WunderPhotos

Upload Photos

1,789,963 photos uploaded!

WunderBlogs® & News

Nearby

Air Quality

  Air Quality AQ Index Pollutant
Not available.

Snow Depth

Station Depth Elevation

Earthquake Activity

City Distance Mag. Time & Date
Minimum magnitude displayed is 2.5.

Coastal Water Temperatures

Place Temperature

Nearby Weather Stations